Time;durP1;ratioP1;P1;durP2;ratioP2;P2;SDS_P1;SDS_P2;PMS_P1;PMS_P2;Temp;Humidity;BMP_temperature;BMP_pressure;BME280_temperature;BME280_humidity;BME280_pressure;Samples;Min_cycle;Max_cycle;Signal;HPM_P1;HPM_P2
2024/03/11 06:42:06;;;;;;;15.20;11.27;;;;;;;;;;10584327;27;20426;-83
2024/03/11 06:47:14;;;;;;;14.23;11.68;;;;;;;;;;10576268;28;20024;-83
2024/03/11 06:52:18;;;;;;;13.93;11.88;;;;;;;;;;10544606;28;20031;-84
2024/03/11 06:57:18;;;;;;;11.90;10.65;;;;;;;;;;10544645;28;20044;-84
2024/03/11 07:02:20;;;;;;;13.60;12.02;;;;;;;;;;10556897;28;20033;-83
2024/03/11 07:07:21;;;;;;;10.23;8.70;;;;;;;;;;10538350;28;20069;-84
2024/03/11 07:12:23;;;;;;;12.15;10.88;;;;;;;;;;10538432;28;20177;-84
2024/03/11 07:17:24;;;;;;;14.95;12.95;;;;;;;;;;10536763;28;20024;-85
2024/03/11 07:22:25;;;;;;;14.50;12.93;;;;;;;;;;10558987;28;20039;-84
2024/03/11 07:27:26;;;;;;;14.88;13.38;;;;;;;;;;10569487;28;20040;-84
2024/03/11 07:32:27;;;;;;;12.30;11.10;;;;;;;;;;10568881;28;20031;-84
2024/03/11 07:37:29;;;;;;;14.40;12.70;;;;;;;;;;10560152;28;20066;-84
2024/03/11 07:42:32;;;;;;;31.35;27.95;;;;;;;;;;10558856;28;20025;-84
2024/03/11 07:47:33;;;;;;;16.75;14.93;;;;;;;;;;10572268;28;20024;-84
2024/03/11 07:52:34;;;;;;;12.25;10.95;;;;;;;;;;10540500;28;20099;-85
2024/03/11 07:57:36;;;;;;;11.85;10.38;;;;;;;;;;10514632;28;20044;-84
2024/03/11 08:02:37;;;;;;;9.95;8.90;;;;;;;;;;10511428;28;20024;-84
2024/03/11 08:07:39;;;;;;;9.07;8.18;;;;;;;;;;10516380;28;20020;-86
2024/03/11 08:12:44;;;;;;;11.27;9.13;;;;;;;;;;10513925;28;20036;-81
2024/03/11 08:17:49;;;;;;;11.38;10.23;;;;;;;;;;10517535;28;20048;-82
2024/03/11 08:22:52;;;;;;;10.07;9.00;;;;;;;;;;10514299;28;20040;-82
2024/03/11 08:27:53;;;;;;;13.50;10.18;;;;;;;;;;10506649;28;20036;-80
2024/03/11 08:32:56;;;;;;;9.95;8.93;;;;;;;;;;10506887;28;20025;-80
2024/03/11 08:37:58;;;;;;;13.40;11.18;;;;;;;;;;10507264;28;20029;-81
2024/03/11 08:43:00;;;;;;;9.65;8.68;;;;;;;;;;10508516;28;20107;-80
2024/03/11 08:48:01;;;;;;;10.05;9.05;;;;;;;;;;10506933;28;20028;-80
2024/03/11 08:53:02;;;;;;;13.32;10.02;;;;;;;;;;10529323;22;20502;-83
2024/03/11 08:58:12;;;;;;;10.10;9.10;;;;;;;;;;10394763;28;20452;-85
2024/03/11 09:03:28;;;;;;;9.25;8.35;;;;;;;;;;10395721;28;20089;-81
2024/03/11 09:08:29;;;;;;;9.75;8.75;;;;;;;;;;10395840;28;20062;-81
2024/03/11 09:13:31;;;;;;;10.43;9.27;;;;;;;;;;10396776;28;20030;-81
2024/03/11 09:18:33;;;;;;;10.07;8.73;;;;;;;;;;10397630;28;20057;-81
2024/03/11 09:23:40;;;;;;;10.15;8.45;;;;;;;;;;10401576;28;20050;-82
2024/03/11 09:28:46;;;;;;;8.40;7.25;;;;;;;;;;10413551;28;20032;-81
2024/03/11 09:33:49;;;;;;;9.30;8.40;;;;;;;;;;10411013;28;20026;-81
2024/03/11 09:38:52;;;;;;;9.93;8.93;;;;;;;;;;10399560;28;20474;-83
2024/03/11 09:43:54;;;;;;;13.02;11.73;;;;;;;;;;10381347;28;20033;-80
2024/03/11 09:49:05;;;;;;;9.25;8.35;;;;;;;;;;10390038;28;20025;-81
2024/03/11 09:54:10;;;;;;;9.88;8.20;;;;;;;;;;10387755;28;20045;-82
2024/03/11 09:59:11;;;;;;;10.15;7.28;;;;;;;;;;10385958;28;20323;-81
2024/03/11 10:04:15;;;;;;;7.43;6.72;;;;;;;;;;10383973;28;20025;-81
2024/03/11 10:09:19;;;;;;;8.05;7.22;;;;;;;;;;10385713;28;20053;-81
2024/03/11 10:14:22;;;;;;;10.55;9.45;;;;;;;;;;10387628;28;20114;-82
2024/03/11 10:19:32;;;;;;;10.23;8.73;;;;;;;;;;10417377;28;20035;-82
2024/03/11 10:24:40;;;;;;;8.33;7.50;;;;;;;;;;10401486;28;20454;-82
2024/03/11 10:29:45;;;;;;;9.05;7.95;;;;;;;;;;10384470;28;20037;-82
2024/03/11 10:34:56;;;;;;;7.13;6.43;;;;;;;;;;10389174;28;20060;-83
2024/03/11 10:40:00;;;;;;;7.93;6.47;;;;;;;;;;10387355;28;20030;-82
2024/03/11 10:45:07;;;;;;;7.68;6.88;;;;;;;;;;10369357;28;20060;-83
2024/03/11 10:50:14;;;;;;;9.48;8.57;;;;;;;;;;10382004;28;20500;-83
2024/03/11 10:55:15;;;;;;;11.60;10.00;;;;;;;;;;10381780;28;20499;-83
2024/03/11 11:05:19;;;;;;;8.23;7.18;;;;;;;;;;10391770;28;20069;-83
2024/03/11 11:10:38;;;;;;;28.67;24.70;;;;;;;;;;10390634;28;20052;-82
2024/03/11 11:15:41;;;;;;;13.38;10.77;;;;;;;;;;10388759;28;20093;-81
2024/03/11 11:20:45;;;;;;;12.57;11.05;;;;;;;;;;10386502;28;20030;-82
2024/03/11 11:25:46;;;;;;;20.55;17.10;;;;;;;;;;10391519;28;20026;-82
2024/03/11 11:30:48;;;;;;;10.00;8.85;;;;;;;;;;10400041;28;20030;-82
2024/03/11 11:36:12;;;;;;;14.32;11.40;;;;;;;;;;10399987;28;20104;-82
2024/03/11 11:41:33;;;;;;;13.13;11.38;;;;;;;;;;10400743;28;20030;-82
2024/03/11 11:46:42;;;;;;;15.00;13.40;;;;;;;;;;10406691;28;20022;-83
2024/03/11 11:51:51;;;;;;;9.63;8.57;;;;;;;;;;10420146;28;20049;-84
2024/03/11 12:02:48;;;;;;;21.92;19.55;;;;;;;;;;10385050;28;20041;-86
2024/03/11 12:08:07;;;;;;;14.85;11.75;;;;;;;;;;10387735;28;20113;-82
2024/03/11 12:13:17;;;;;;;12.45;10.35;;;;;;;;;;10389106;28;20044;-84
2024/03/11 12:18:21;;;;;;;19.55;17.15;;;;;;;;;;10400707;28;20026;-84
2024/03/11 12:23:25;;;;;;;12.02;10.43;;;;;;;;;;10423015;28;20041;-83
2024/03/11 12:28:31;;;;;;;19.00;17.00;;;;;;;;;;10403161;28;20026;-83
2024/03/11 12:33:37;;;;;;;17.67;15.05;;;;;;;;;;10403519;28;20101;-84
2024/03/11 12:38:38;;;;;;;12.32;10.68;;;;;;;;;;10407199;28;20032;-82
2024/03/11 12:43:51;;;;;;;10.20;8.95;;;;;;;;;;10405064;28;20076;-83
2024/03/11 12:49:14;;;;;;;13.95;12.50;;;;;;;;;;10408146;28;20022;-84
2024/03/11 12:54:37;;;;;;;9.43;8.45;;;;;;;;;;10399645;28;20073;-84
2024/03/11 12:59:41;;;;;;;10.95;9.27;;;;;;;;;;10388437;28;20052;-83
2024/03/11 13:05:30;;;;;;;10.52;8.25;;;;;;;;;;10391154;28;20042;-85
2024/03/11 13:10:54;;;;;;;14.13;11.95;;;;;;;;;;10390377;28;20030;-84
2024/03/11 13:16:24;;;;;;;12.05;10.32;;;;;;;;;;10389616;28;20049;-84
2024/03/11 13:21:39;;;;;;;13.05;11.75;;;;;;;;;;10374496;28;20046;-84
2024/03/11 13:26:49;;;;;;;10.60;9.40;;;;;;;;;;10390646;28;20029;-83
2024/03/11 13:31:55;;;;;;;16.02;14.32;;;;;;;;;;10387095;28;20037;-83
2024/03/11 13:37:03;;;;;;;12.23;8.30;;;;;;;;;;10393270;28;20038;-83
2024/03/11 13:42:24;;;;;;;9.27;7.80;;;;;;;;;;10388635;28;20504;-84
2024/03/11 13:47:27;;;;;;;;;;;;;;;;;;10383620;28;20034;-83
2024/03/11 13:52:28;;;;;;;9.07;7.85;;;;;;;;;;10406661;28;19912;-83
2024/03/11 13:57:48;;;;;;;9.13;8.13;;;;;;;;;;10390699;28;20034;-83
2024/03/11 14:02:50;;;;;;;7.15;6.10;;;;;;;;;;10389582;28;20064;-83
2024/03/11 14:07:53;;;;;;;10.65;8.00;;;;;;;;;;10390570;28;20084;-83
2024/03/11 14:13:00;;;;;;;6.30;5.70;;;;;;;;;;10388476;28;20060;-84
2024/03/11 14:29:22;;;;;;;5.15;4.53;;;;;;;;;;10385922;28;20034;-82
2024/03/11 14:34:26;;;;;;;6.38;4.60;;;;;;;;;;10389425;28;20033;-82
2024/03/11 14:39:33;;;;;;;5.47;4.57;;;;;;;;;;10387480;28;20038;-83
2024/03/11 14:44:41;;;;;;;7.78;5.60;;;;;;;;;;10386952;28;20033;-83
2024/03/11 14:49:59;;;;;;;6.07;4.60;;;;;;;;;;10392158;28;20041;-84
2024/03/11 14:55:58;;;;;;;4.75;3.80;;;;;;;;;;10435335;22;20056;-84
2024/03/11 15:01:34;;;;;;;4.00;3.25;;;;;;;;;;10490317;28;20037;-83
2024/03/11 15:06:36;;;;;;;4.65;3.28;;;;;;;;;;10502562;28;20040;-83
2024/03/11 15:11:43;;;;;;;4.55;3.55;;;;;;;;;;10499552;28;20033;-82
2024/03/11 15:16:48;;;;;;;4.53;3.30;;;;;;;;;;10501754;28;20499;-84
2024/03/11 15:22:26;;;;;;;4.43;2.92;;;;;;;;;;10458401;28;20032;-85
2024/03/11 15:27:34;;;;;;;4.82;3.95;;;;;;;;;;10479303;28;20098;-83
2024/03/11 15:32:41;;;;;;;5.57;3.10;;;;;;;;;;10477845;28;20041;-83
2024/03/11 15:37:48;;;;;;;5.25;4.10;;;;;;;;;;10478899;28;20036;-83
2024/03/11 15:42:49;;;;;;;5.05;4.00;;;;;;;;;;10480932;28;20058;-82
2024/03/11 15:47:51;;;;;;;4.70;3.72;;;;;;;;;;10488806;28;20024;-83
2024/03/11 15:52:52;;;;;;;5.07;3.30;;;;;;;;;;10479098;28;20025;-83
2024/03/11 15:57:55;;;;;;;6.20;4.82;;;;;;;;;;10481409;28;20060;-84
2024/03/11 16:02:57;;;;;;;5.47;3.75;;;;;;;;;;10477367;28;20096;-84
2024/03/11 16:07:58;;;;;;;4.45;3.50;;;;;;;;;;10477944;28;20091;-84
2024/03/11 16:13:13;;;;;;;4.50;3.50;;;;;;;;;;10475698;28;20021;-84
2024/03/11 16:18:18;;;;;;;3.90;3.00;;;;;;;;;;10473515;28;20108;-83
2024/03/11 16:23:32;;;;;;;4.00;3.22;;;;;;;;;;10474776;28;20267;-82
2024/03/11 16:28:34;;;;;;;4.93;4.13;;;;;;;;;;10478283;28;20460;-82
2024/03/11 16:33:35;;;;;;;5.70;4.05;;;;;;;;;;10502845;28;20032;-83
2024/03/11 16:38:54;;;;;;;5.70;3.97;;;;;;;;;;10480446;28;20377;-82
2024/03/11 16:44:06;;;;;;;3.60;3.10;;;;;;;;;;10466343;28;20115;-84
2024/03/11 16:49:10;;;;;;;8.23;6.93;;;;;;;;;;10468563;28;20060;-83
2024/03/11 16:54:17;;;;;;;5.72;5.07;;;;;;;;;;10471075;28;20044;-83
2024/03/11 16:59:21;;;;;;;4.63;3.75;;;;;;;;;;10469911;28;20063;-83
2024/03/11 17:04:40;;;;;;;4.70;4.15;;;;;;;;;;10472949;28;20032;-83
2024/03/11 17:10:06;;;;;;;4.55;3.72;;;;;;;;;;10472091;28;20041;-82
2024/03/11 17:15:37;;;;;;;4.03;3.38;;;;;;;;;;10469169;28;20033;-83
2024/03/11 17:20:44;;;;;;;3.42;2.38;;;;;;;;;;10472908;28;20024;-83
2024/03/11 17:25:45;;;;;;;4.55;2.80;;;;;;;;;;10473415;28;20480;-80
2024/03/11 17:30:55;;;;;;;3.60;2.80;;;;;;;;;;10469860;28;20033;-84
2024/03/11 17:36:04;;;;;;;6.47;4.20;;;;;;;;;;10479714;28;20076;-84
2024/03/11 17:41:06;;;;;;;3.95;2.90;;;;;;;;;;10484195;28;20025;-85
2024/03/11 17:46:07;;;;;;;3.78;3.20;;;;;;;;;;10488410;28;20059;-84
2024/03/11 17:51:27;;;;;;;5.03;4.28;;;;;;;;;;10486202;28;20078;-84
2024/03/11 17:56:30;;;;;;;3.47;2.93;;;;;;;;;;10479783;28;20100;-84
2024/03/11 18:01:32;;;;;;;3.08;2.45;;;;;;;;;;10488619;28;20028;-84
2024/03/11 18:06:39;;;;;;;3.97;2.67;;;;;;;;;;10475262;28;20033;-84
2024/03/11 18:11:47;;;;;;;4.75;2.67;;;;;;;;;;10470407;28;20033;-84
2024/03/11 18:17:13;;;;;;;3.35;2.13;;;;;;;;;;10473418;28;20060;-84
2024/03/11 18:22:15;;;;;;;2.75;2.13;;;;;;;;;;10470668;28;20079;-84
2024/03/11 18:27:16;;;;;;;4.50;3.40;;;;;;;;;;10469568;28;20481;-84
2024/03/11 18:32:40;;;;;;;3.28;2.05;;;;;;;;;;10472114;28;20032;-84
2024/03/11 18:37:50;;;;;;;2.50;1.98;;;;;;;;;;10470616;28;20032;-84
2024/03/11 18:42:53;;;;;;;2.38;1.80;;;;;;;;;;10467376;28;20021;-84
2024/03/11 18:48:00;;;;;;;2.05;1.73;;;;;;;;;;10467053;28;20431;-84
2024/03/11 18:53:03;;;;;;;2.22;1.98;;;;;;;;;;10473530;28;20473;-84
2024/03/11 18:58:04;;;;;;;3.92;2.95;;;;;;;;;;10476296;28;20048;-84
2024/03/11 19:03:31;;;;;;;2.30;1.88;;;;;;;;;;10475680;28;20044;-84
2024/03/11 19:08:32;;;;;;;2.58;2.10;;;;;;;;;;10480196;28;20056;-85
2024/03/11 19:13:36;;;;;;;3.85;2.83;;;;;;;;;;10486405;28;20055;-85
2024/03/11 19:18:42;;;;;;;2.97;2.63;;;;;;;;;;10483237;28;20481;-84
2024/03/11 19:23:50;;;;;;;2.70;2.22;;;;;;;;;;10475786;28;20443;-85
2024/03/11 19:28:56;;;;;;;2.53;2.20;;;;;;;;;;10470417;28;20029;-84
2024/03/11 19:34:07;;;;;;;2.70;2.40;;;;;;;;;;10472384;28;20041;-84
2024/03/11 19:39:29;;;;;;;3.00;2.35;;;;;;;;;;10474488;28;20086;-85
2024/03/11 19:44:48;;;;;;;2.50;2.00;;;;;;;;;;10468796;28;20446;-85
2024/03/11 19:50:10;;;;;;;2.85;2.42;;;;;;;;;;10478930;28;20124;-85
2024/03/11 19:55:30;;;;;;;2.50;2.20;;;;;;;;;;10477369;28;20025;-85
2024/03/11 20:00:58;;;;;;;5.00;3.95;;;;;;;;;;10477382;28;20548;-85
2024/03/11 20:06:25;;;;;;;3.83;2.80;;;;;;;;;;10476987;28;20078;-85
